Time;durP1;ratioP1;P1;durP2;ratioP2;P2;SDS_P1;SDS_P2;PMS_P1;PMS_P2;Temp;Humidity;BMP_temperature;BMP_pressure;BME280_temperature;BME280_humidity;BME280_pressure;Samples;Min_cycle;Max_cycle;Signal;HPM_P1;HPM_P2
2023/08/28 00:02:26;;;;;;;6.28;1.80;;;;;;;;;;4983832;28;20066;-62
2023/08/28 00:04:53;;;;;;;4.07;1.80;;;;;;;;;;4972649;28;20058;-63
2023/08/28 00:07:20;;;;;;;2.90;1.77;;;;;;;;;;4993665;28;20117;-62
2023/08/28 00:09:46;;;;;;;3.85;2.00;;;;;;;;;;4994085;28;20054;-62
2023/08/28 00:12:17;;;;;;;3.13;1.60;;;;;;;;;;5000748;28;20257;-62
2023/08/28 00:14:43;;;;;;;4.65;2.00;;;;;;;;;;4997663;28;20058;-63
2023/08/28 00:17:10;;;;;;;6.20;1.65;;;;;;;;;;5001538;28;20073;-62
2023/08/28 00:19:37;;;;;;;3.85;1.73;;;;;;;;;;5001830;28;20120;-62
2023/08/28 00:22:04;;;;;;;4.40;1.88;;;;;;;;;;5001971;28;20161;-63
2023/08/28 00:24:31;;;;;;;6.47;1.67;;;;;;;;;;4995901;28;20212;-63
2023/08/28 00:26:57;;;;;;;5.00;2.03;;;;;;;;;;4998519;28;20128;-62
2023/08/28 00:29:25;;;;;;;5.30;1.80;;;;;;;;;;5001206;28;20129;-63
2023/08/28 00:31:52;;;;;;;3.67;1.52;;;;;;;;;;5002325;28;20136;-63
2023/08/28 00:34:19;;;;;;;3.38;1.60;;;;;;;;;;4992651;28;20575;-62
2023/08/28 00:36:45;;;;;;;3.53;1.67;;;;;;;;;;4998755;28;20058;-62
2023/08/28 00:39:12;;;;;;;4.07;1.77;;;;;;;;;;5005431;28;20069;-63
2023/08/28 00:41:38;;;;;;;4.00;1.67;;;;;;;;;;5000452;28;20136;-62
2023/08/28 00:44:06;;;;;;;6.53;1.77;;;;;;;;;;4998512;28;20045;-62
2023/08/28 00:46:34;;;;;;;3.95;1.50;;;;;;;;;;4991244;28;20144;-62
2023/08/28 00:49:01;;;;;;;2.53;1.50;;;;;;;;;;4999476;28;20046;-62
2023/08/28 00:51:28;;;;;;;4.05;1.63;;;;;;;;;;5004883;28;20045;-62
2023/08/28 00:53:55;;;;;;;8.85;1.70;;;;;;;;;;4992871;28;20058;-62
2023/08/28 00:56:22;;;;;;;4.55;1.92;;;;;;;;;;4984313;28;20054;-62
2023/08/28 00:58:48;;;;;;;5.53;1.90;;;;;;;;;;4980339;28;20050;-62
2023/08/28 01:01:15;;;;;;;4.68;2.10;;;;;;;;;;4972943;28;20054;-63
2023/08/28 01:03:43;;;;;;;4.80;2.17;;;;;;;;;;4961415;28;20137;-62
2023/08/28 01:06:20;;;;;;;5.95;1.83;;;;;;;;;;4960498;28;20084;-63
2023/08/28 01:09:04;;;;;;;4.20;1.92;;;;;;;;;;4979814;28;20082;-62
2023/08/28 01:11:36;;;;;;;4.35;1.90;;;;;;;;;;4980443;28;20058;-63
2023/08/28 01:14:10;;;;;;;4.88;2.03;;;;;;;;;;5000462;28;20054;-62
2023/08/28 01:16:38;;;;;;;5.55;1.90;;;;;;;;;;4992647;28;20120;-62
2023/08/28 01:19:14;;;;;;;3.72;2.00;;;;;;;;;;4999903;28;20057;-62
2023/08/28 01:21:45;;;;;;;3.47;1.67;;;;;;;;;;5001031;28;20073;-62
2023/08/28 01:24:15;;;;;;;3.03;1.65;;;;;;;;;;4993810;28;20189;-62
2023/08/28 01:26:43;;;;;;;7.95;2.00;;;;;;;;;;4994538;28;20446;-62
2023/08/28 01:29:10;;;;;;;4.63;1.80;;;;;;;;;;5000157;28;20121;-62
2023/08/28 01:31:36;;;;;;;7.13;1.95;;;;;;;;;;4999673;28;20045;-63
2023/08/28 01:34:03;;;;;;;3.45;1.80;;;;;;;;;;5000213;28;20065;-63
2023/08/28 01:36:37;;;;;;;4.28;2.13;;;;;;;;;;4985628;28;20100;-62
2023/08/28 01:39:09;;;;;;;3.97;1.70;;;;;;;;;;5000299;28;20461;-62
2023/08/28 01:41:38;;;;;;;4.47;1.77;;;;;;;;;;4999115;28;20104;-63
2023/08/28 01:44:09;;;;;;;4.72;1.95;;;;;;;;;;4998551;28;20081;-62
2023/08/28 01:46:36;;;;;;;6.18;1.80;;;;;;;;;;4990216;28;20423;-62
2023/08/28 01:49:03;;;;;;;5.90;1.80;;;;;;;;;;4997809;28;20141;-62
2023/08/28 01:51:29;;;;;;;6.18;1.80;;;;;;;;;;4981871;28;20050;-62
2023/08/28 01:53:56;;;;;;;4.35;1.73;;;;;;;;;;4997452;28;20116;-62
2023/08/28 01:56:24;;;;;;;5.10;1.92;;;;;;;;;;4988935;28;20171;-62
2023/08/28 01:58:53;;;;;;;6.07;1.70;;;;;;;;;;4980301;28;20058;-62
2023/08/28 02:01:22;;;;;;;6.10;2.00;;;;;;;;;;4987226;28;20170;-62
2023/08/28 02:03:48;;;;;;;4.78;1.70;;;;;;;;;;4980584;28;20459;-62
2023/08/28 02:06:16;;;;;;;2.70;1.60;;;;;;;;;;4998484;28;20681;-62
2023/08/28 02:08:42;;;;;;;6.55;2.20;;;;;;;;;;4997106;28;20062;-62
2023/08/28 02:11:09;;;;;;;3.95;1.55;;;;;;;;;;4998756;28;20070;-62
2023/08/28 02:13:37;;;;;;;4.78;1.83;;;;;;;;;;4997396;28;20058;-62
2023/08/28 02:16:04;;;;;;;3.90;1.90;;;;;;;;;;4965355;28;20065;-62
2023/08/28 02:18:32;;;;;;;4.45;1.77;;;;;;;;;;4989424;28;20424;-62
2023/08/28 02:20:59;;;;;;;4.53;1.67;;;;;;;;;;4996029;28;20056;-62
2023/08/28 02:23:26;;;;;;;3.28;1.83;;;;;;;;;;4977002;28;20145;-62
2023/08/28 02:25:54;;;;;;;3.10;1.63;;;;;;;;;;4980652;28;20108;-62
2023/08/28 02:28:22;;;;;;;2.80;1.63;;;;;;;;;;4973141;28;20125;-62
2023/08/28 02:30:49;;;;;;;5.63;2.05;;;;;;;;;;4978545;28;20058;-62
2023/08/28 02:33:16;;;;;;;3.85;1.85;;;;;;;;;;4979056;28;20133;-62
2023/08/28 02:35:45;;;;;;;6.75;1.90;;;;;;;;;;4975075;28;20059;-61
2023/08/28 02:38:12;;;;;;;6.53;1.90;;;;;;;;;;4981773;28;20057;-62
2023/08/28 02:40:39;;;;;;;3.10;1.73;;;;;;;;;;4995195;28;20093;-61
2023/08/28 02:43:07;;;;;;;2.47;1.50;;;;;;;;;;4997791;28;20551;-62
2023/08/28 02:45:35;;;;;;;6.35;1.90;;;;;;;;;;5006696;28;20050;-62
2023/08/28 02:48:03;;;;;;;2.97;1.73;;;;;;;;;;4998946;28;20058;-61
2023/08/28 02:50:29;;;;;;;5.00;1.73;;;;;;;;;;4992017;28;20064;-62
2023/08/28 02:52:58;;;;;;;4.10;2.00;;;;;;;;;;4999503;28;20066;-61
2023/08/28 02:55:24;;;;;;;4.20;2.13;;;;;;;;;;4992626;28;20123;-61
2023/08/28 02:57:51;;;;;;;3.85;1.92;;;;;;;;;;4994415;28;20100;-62
2023/08/28 03:00:18;;;;;;;4.65;2.05;;;;;;;;;;4977386;28;20053;-62
2023/08/28 03:02:46;;;;;;;4.53;2.05;;;;;;;;;;4997075;28;20133;-61
2023/08/28 03:05:13;;;;;;;2.95;1.63;;;;;;;;;;4987359;28;20077;-61
2023/08/28 03:07:40;;;;;;;3.92;2.08;;;;;;;;;;4998923;28;20128;-62
2023/08/28 03:10:10;;;;;;;3.90;1.98;;;;;;;;;;4999260;28;20085;-62
2023/08/28 03:12:37;;;;;;;4.22;1.67;;;;;;;;;;4993893;28;20164;-62
2023/08/28 03:15:05;;;;;;;3.72;1.83;;;;;;;;;;4997469;28;20127;-62
2023/08/28 03:17:31;;;;;;;5.72;2.50;;;;;;;;;;4999065;28;20072;-62
2023/08/28 03:19:58;;;;;;;4.65;2.00;;;;;;;;;;4996954;28;20204;-62
2023/08/28 03:22:25;;;;;;;4.20;2.20;;;;;;;;;;5006742;28;20062;-62
2023/08/28 03:24:53;;;;;;;4.13;2.00;;;;;;;;;;4992761;28;20054;-62
2023/08/28 03:27:21;;;;;;;8.13;1.98;;;;;;;;;;4999989;28;20064;-64
2023/08/28 03:29:48;;;;;;;4.78;2.22;;;;;;;;;;4997945;28;20144;-62
2023/08/28 03:32:15;;;;;;;3.70;2.17;;;;;;;;;;4992074;28;20065;-63
2023/08/28 03:34:41;;;;;;;4.50;1.95;;;;;;;;;;4993773;28;20056;-62
2023/08/28 03:37:08;;;;;;;4.82;2.20;;;;;;;;;;5013977;28;20054;-62
2023/08/28 03:39:35;;;;;;;4.32;2.20;;;;;;;;;;4997273;28;20050;-61
2023/08/28 03:42:02;;;;;;;5.00;2.10;;;;;;;;;;4998886;28;20123;-62
2023/08/28 03:44:30;;;;;;;6.28;2.22;;;;;;;;;;4986909;28;20220;-61
2023/08/28 03:46:56;;;;;;;9.00;2.30;;;;;;;;;;4997725;28;20152;-61
2023/08/28 03:49:23;;;;;;;6.82;2.38;;;;;;;;;;4999384;28;20058;-62
2023/08/28 03:51:50;;;;;;;4.53;2.40;;;;;;;;;;5001399;28;20084;-62
2023/08/28 03:54:17;;;;;;;6.10;2.20;;;;;;;;;;4986869;28;20072;-63
2023/08/28 03:56:44;;;;;;;3.88;2.20;;;;;;;;;;4992038;28;20401;-62
2023/08/28 03:59:11;;;;;;;4.68;2.53;;;;;;;;;;5000353;28;20086;-62
2023/08/28 04:01:39;;;;;;;4.28;2.38;;;;;;;;;;4998798;28;20495;-62
2023/08/28 04:04:06;;;;;;;5.15;2.47;;;;;;;;;;4997684;28;20070;-63
2023/08/28 04:06:32;;;;;;;7.57;2.42;;;;;;;;;;4995846;28;21553;-62
2023/08/28 04:08:59;;;;;;;4.57;2.75;;;;;;;;;;5000307;28;20365;-62
2023/08/28 04:11:26;;;;;;;5.20;2.60;;;;;;;;;;4999842;28;20057;-62
2023/08/28 04:13:53;;;;;;;3.83;2.20;;;;;;;;;;4993143;28;20065;-62
2023/08/28 04:16:20;;;;;;;8.88;2.78;;;;;;;;;;4973769;28;20057;-61
2023/08/28 04:18:48;;;;;;;6.55;2.47;;;;;;;;;;4980313;28;20060;-62
2023/08/28 04:21:14;;;;;;;6.03;2.70;;;;;;;;;;4985742;28;20428;-62
2023/08/28 04:23:41;;;;;;;4.22;2.53;;;;;;;;;;4998495;28;20596;-63
2023/08/28 04:26:08;;;;;;;6.25;3.03;;;;;;;;;;4988194;28;20161;-62
2023/08/28 04:28:35;;;;;;;5.97;2.90;;;;;;;;;;4996612;28;20137;-62
2023/08/28 04:31:03;;;;;;;5.80;2.80;;;;;;;;;;5001843;28;20066;-62
2023/08/28 04:33:30;;;;;;;5.97;3.03;;;;;;;;;;5000039;28;20069;-63
2023/08/28 04:35:59;;;;;;;4.72;2.63;;;;;;;;;;4978241;28;20309;-62
2023/08/28 04:38:25;;;;;;;8.82;4.38;;;;;;;;;;4975533;28;20140;-62
2023/08/28 04:40:52;;;;;;;6.38;3.08;;;;;;;;;;4980846;28;20065;-63
2023/08/28 04:43:19;;;;;;;20.30;12.13;;;;;;;;;;4979675;28;20050;-62
2023/08/28 04:45:46;;;;;;;15.40;7.22;;;;;;;;;;4982076;28;20057;-62
2023/08/28 04:48:12;;;;;;;9.82;4.05;;;;;;;;;;4996059;28;20089;-62
2023/08/28 04:50:39;;;;;;;5.97;3.20;;;;;;;;;;4993270;28;20124;-62
2023/08/28 04:53:07;;;;;;;6.72;3.50;;;;;;;;;;4985371;28;20112;-62
2023/08/28 04:55:34;;;;;;;6.65;3.25;;;;;;;;;;4974461;28;20053;-62
2023/08/28 04:58:01;;;;;;;10.00;3.50;;;;;;;;;;4991532;28;20062;-62
2023/08/28 05:00:28;;;;;;;8.30;3.58;;;;;;;;;;4988615;28;20060;-62
2023/08/28 05:02:55;;;;;;;7.72;3.40;;;;;;;;;;5010294;28;20064;-62
2023/08/28 05:05:23;;;;;;;7.00;3.33;;;;;;;;;;5010921;28;20057;-62
2023/08/28 05:07:50;;;;;;;7.10;3.35;;;;;;;;;;5001557;28;20104;-63
2023/08/28 05:10:18;;;;;;;5.95;3.15;;;;;;;;;;4985647;28;20064;-62
2023/08/28 05:12:45;;;;;;;8.55;3.40;;;;;;;;;;5009481;28;20057;-63
2023/08/28 05:15:12;;;;;;;9.27;3.40;;;;;;;;;;4982408;28;20057;-62
2023/08/28 05:17:39;;;;;;;7.68;3.70;;;;;;;;;;4985808;28;20058;-63
2023/08/28 05:20:10;;;;;;;5.38;3.28;;;;;;;;;;4985868;28;20120;-63
2023/08/28 05:22:36;;;;;;;7.30;3.55;;;;;;;;;;5004628;28;21398;-63
2023/08/28 05:25:03;;;;;;;6.30;3.17;;;;;;;;;;4965236;28;20068;-62
2023/08/28 05:27:32;;;;;;;4.75;2.90;;;;;;;;;;4985794;28;20061;-62
2023/08/28 05:30:00;;;;;;;6.22;3.30;;;;;;;;;;4985840;28;20128;-62
2023/08/28 05:32:26;;;;;;;31.00;14.23;;;;;;;;;;4996652;28;20060;-62
2023/08/28 05:34:53;;;;;;;33.45;14.63;;;;;;;;;;4980621;28;20046;-62
2023/08/28 05:37:21;;;;;;;17.65;8.23;;;;;;;;;;5001930;28;20058;-62
2023/08/28 05:39:47;;;;;;;11.30;5.25;;;;;;;;;;4985199;28;20068;-62
2023/08/28 05:42:15;;;;;;;9.40;4.68;;;;;;;;;;4983201;28;20061;-63
2023/08/28 05:44:45;;;;;;;9.07;4.22;;;;;;;;;;4990879;28;20054;-62
2023/08/28 05:47:11;;;;;;;8.13;4.47;;;;;;;;;;5000838;28;20065;-62
2023/08/28 05:49:38;;;;;;;10.38;4.90;;;;;;;;;;5011826;28;20068;-62
2023/08/28 05:52:05;;;;;;;9.40;4.35;;;;;;;;;;5001583;28;20060;-62
2023/08/28 05:54:34;;;;;;;8.55;4.30;;;;;;;;;;4971682;28;20144;-64
2023/08/28 05:57:01;;;;;;;12.95;5.40;;;;;;;;;;5020090;28;20110;-65
2023/08/28 05:59:28;;;;;;;8.88;4.80;;;;;;;;;;5001857;28;20060;-60
2023/08/28 06:01:57;;;;;;;10.88;5.32;;;;;;;;;;5005871;28;20089;-64
2023/08/28 06:04:24;;;;;;;12.13;5.00;;;;;;;;;;4986942;28;20139;-61
2023/08/28 06:06:50;;;;;;;14.02;5.82;;;;;;;;;;5000038;28;20077;-62
2023/08/28 06:09:17;;;;;;;11.48;5.55;;;;;;;;;;4998554;28;20053;-62
2023/08/28 06:11:44;;;;;;;11.73;5.75;;;;;;;;;;5018524;28;20063;-62
2023/08/28 06:14:11;;;;;;;12.82;5.97;;;;;;;;;;5011577;28;20123;-62
2023/08/28 06:16:38;;;;;;;14.23;5.57;;;;;;;;;;4995008;28;20053;-62
2023/08/28 06:19:06;;;;;;;11.05;5.57;;;;;;;;;;5018835;28;20203;-61
2023/08/28 06:21:33;;;;;;;11.88;5.28;;;;;;;;;;5012480;28;20057;-61
2023/08/28 06:24:00;;;;;;;12.05;6.03;;;;;;;;;;4993126;28;20500;-62
2023/08/28 06:26:27;;;;;;;11.98;6.00;;;;;;;;;;4991815;28;20093;-61
2023/08/28 06:28:53;;;;;;;10.13;5.32;;;;;;;;;;4981259;28;20157;-62
2023/08/28 06:31:20;;;;;;;12.57;6.20;;;;;;;;;;4982248;28;20073;-62
2023/08/28 06:33:47;;;;;;;14.45;6.30;;;;;;;;;;4998362;28;20144;-62
2023/08/28 06:36:15;;;;;;;12.55;6.25;;;;;;;;;;4975637;28;20152;-62
2023/08/28 06:38:42;;;;;;;11.30;5.90;;;;;;;;;;4994753;28;20052;-62
2023/08/28 06:41:08;;;;;;;12.20;6.25;;;;;;;;;;4999457;28;20381;-61
2023/08/28 06:43:35;;;;;;;14.73;5.63;;;;;;;;;;4981354;28;20176;-61
2023/08/28 06:46:03;;;;;;;13.15;6.22;;;;;;;;;;5008231;28;20054;-61
2023/08/28 06:48:29;;;;;;;14.23;7.43;;;;;;;;;;4993518;28;20132;-62
2023/08/28 06:50:57;;;;;;;17.48;8.20;;;;;;;;;;5017759;28;20147;-62
2023/08/28 06:53:26;;;;;;;22.55;12.85;;;;;;;;;;5016620;28;20131;-62
2023/08/28 06:55:53;;;;;;;12.70;7.43;;;;;;;;;;4996552;28;20053;-61
2023/08/28 06:58:20;;;;;;;14.43;6.25;;;;;;;;;;5009638;28;20057;-62
2023/08/28 07:00:47;;;;;;;11.73;6.07;;;;;;;;;;4976551;28;20136;-62
2023/08/28 07:03:13;;;;;;;14.13;6.13;;;;;;;;;;4995465;28;20065;-62
2023/08/28 07:05:40;;;;;;;11.88;6.20;;;;;;;;;;4984019;28;20476;-62
2023/08/28 07:08:07;;;;;;;11.13;5.97;;;;;;;;;;5000532;28;20053;-63
2023/08/28 07:10:35;;;;;;;13.32;6.15;;;;;;;;;;4991371;28;20066;-63
2023/08/28 07:13:02;;;;;;;12.18;6.10;;;;;;;;;;4991254;28;20082;-63
2023/08/28 07:15:58;;;;;;;11.43;5.97;;;;;;;;;;4974315;28;20133;-63
2023/08/28 07:18:25;;;;;;;11.88;5.35;;;;;;;;;;4972120;28;20058;-63
2023/08/28 07:20:52;;;;;;;12.10;5.82;;;;;;;;;;4979353;28;20058;-62
2023/08/28 07:23:18;;;;;;;10.68;5.88;;;;;;;;;;4980116;28;20066;-62
2023/08/28 07:25:47;;;;;;;11.30;5.63;;;;;;;;;;4977313;28;20058;-62
2023/08/28 07:28:14;;;;;;;9.60;5.43;;;;;;;;;;4980725;28;20450;-61
2023/08/28 07:30:42;;;;;;;9.10;4.70;;;;;;;;;;4993158;28;20093;-62
2023/08/28 07:33:09;;;;;;;10.70;5.65;;;;;;;;;;4983011;28;20552;-62
2023/08/28 07:35:36;;;;;;;10.63;5.80;;;;;;;;;;4977107;28;20046;-61
2023/08/28 07:38:07;;;;;;;11.32;5.47;;;;;;;;;;4982370;28;20076;-61
2023/08/28 07:40:34;;;;;;;9.52;5.03;;;;;;;;;;4973388;28;20058;-62
2023/08/28 07:43:03;;;;;;;10.95;5.13;;;;;;;;;;4983246;28;20132;-62
2023/08/28 07:45:30;;;;;;;12.70;5.43;;;;;;;;;;4989903;28;20064;-62
2023/08/28 07:47:58;;;;;;;11.85;5.47;;;;;;;;;;5001407;28;20052;-62
2023/08/28 07:50:26;;;;;;;14.73;8.43;;;;;;;;;;4993844;28;20058;-62
2023/08/28 07:52:52;;;;;;;18.95;10.07;;;;;;;;;;4999368;28;20429;-62
2023/08/28 07:55:19;;;;;;;17.10;6.65;;;;;;;;;;4968512;28;20059;-62
2023/08/28 07:57:46;;;;;;;9.90;5.60;;;;;;;;;;4992205;28;20057;-63
2023/08/28 08:00:20;;;;;;;15.43;5.57;;;;;;;;;;4998575;28;20060;-63
2023/08/28 08:02:47;;;;;;;9.80;5.72;;;;;;;;;;5000184;28;20054;-62
2023/08/28 08:05:13;;;;;;;9.55;4.60;;;;;;;;;;4987916;28;20054;-62
2023/08/28 08:07:40;;;;;;;12.85;4.63;;;;;;;;;;5001538;28;20054;-61
2023/08/28 08:10:11;;;;;;;12.88;4.78;;;;;;;;;;5000357;28;20079;-61
2023/08/28 08:12:39;;;;;;;9.90;4.78;;;;;;;;;;4996726;28;20058;-62
2023/08/28 08:15:07;;;;;;;8.68;4.00;;;;;;;;;;4995732;28;20049;-62
2023/08/28 08:17:36;;;;;;;8.48;4.40;;;;;;;;;;5000020;28;20065;-62
2023/08/28 08:20:04;;;;;;;8.35;5.10;;;;;;;;;;5000603;28;20554;-61
2023/08/28 08:22:31;;;;;;;7.65;4.35;;;;;;;;;;4978069;28;20073;-62
2023/08/28 08:24:58;;;;;;;9.88;4.85;;;;;;;;;;4965378;28;20066;-62
2023/08/28 08:27:25;;;;;;;8.30;4.18;;;;;;;;;;4982777;28;20128;-61
2023/08/28 08:29:51;;;;;;;8.80;3.95;;;;;;;;;;4980987;28;20125;-62
2023/08/28 08:32:18;;;;;;;7.43;3.58;;;;;;;;;;4975077;28;20062;-62
2023/08/28 08:34:47;;;;;;;7.72;4.10;;;;;;;;;;4976847;28;20054;-62
2023/08/28 08:37:16;;;;;;;6.75;3.78;;;;;;;;;;4982209;28;20069;-61
2023/08/28 08:39:42;;;;;;;7.45;3.13;;;;;;;;;;4999829;28;20138;-62
2023/08/28 08:42:10;;;;;;;7.65;3.72;;;;;;;;;;4999093;28;20057;-62
2023/08/28 08:44:39;;;;;;;6.53;3.80;;;;;;;;;;4988873;28;20053;-62
2023/08/28 08:47:06;;;;;;;7.97;3.60;;;;;;;;;;4999670;28;20053;-62
2023/08/28 08:49:34;;;;;;;8.10;3.30;;;;;;;;;;4998391;28;20507;-62
2023/08/28 08:52:06;;;;;;;4.95;2.83;;;;;;;;;;4999459;28;20120;-62
2023/08/28 08:54:39;;;;;;;6.95;3.60;;;;;;;;;;4989830;28;20069;-62
2023/08/28 08:57:13;;;;;;;9.52;4.05;;;;;;;;;;5000719;28;20053;-62
2023/08/28 08:59:41;;;;;;;7.28;3.45;;;;;;;;;;5002959;28;20423;-62
2023/08/28 09:02:12;;;;;;;6.97;3.60;;;;;;;;;;4998625;28;20147;-63
2023/08/28 09:04:42;;;;;;;9.52;3.35;;;;;;;;;;4986231;28;20116;-62
2023/08/28 09:07:11;;;;;;;6.25;3.55;;;;;;;;;;4999306;28;20050;-62
2023/08/28 09:09:39;;;;;;;6.28;3.10;;;;;;;;;;4998224;28;20053;-62
2023/08/28 09:12:07;;;;;;;6.75;2.95;;;;;;;;;;4996821;28;20141;-63
2023/08/28 09:14:34;;;;;;;5.47;2.60;;;;;;;;;;4980335;28;20065;-61
2023/08/28 09:17:01;;;;;;;7.78;3.00;;;;;;;;;;4998982;28;20053;-64
2023/08/28 09:19:28;;;;;;;6.25;3.08;;;;;;;;;;5000521;28;20053;-61
2023/08/28 09:21:56;;;;;;;5.93;2.15;;;;;;;;;;4993914;28;20046;-61
2023/08/28 09:24:25;;;;;;;4.55;2.05;;;;;;;;;;4968847;28;20058;-62
2023/08/28 09:26:53;;;;;;;8.90;2.40;;;;;;;;;;4980509;28;20058;-62
2023/08/28 09:29:23;;;;;;;5.43;2.33;;;;;;;;;;4979547;28;20058;-62
2023/08/28 09:31:51;;;;;;;7.72;2.78;;;;;;;;;;4980530;28;20313;-62
2023/08/28 09:34:20;;;;;;;6.37;2.27;;;;;;;;;;4979865;28;20069;-62
2023/08/28 09:36:46;;;;;;;;;;;;;;;;;;5001086;28;20350;-62
2023/08/28 09:39:13;;;;;;;6.18;2.13;;;;;;;;;;4998764;28;19926;-62
2023/08/28 09:41:42;;;;;;;5.15;1.95;;;;;;;;;;4997803;28;20385;-62
2023/08/28 09:44:10;;;;;;;4.05;1.77;;;;;;;;;;4993866;28;20061;-62
2023/08/28 09:46:37;;;;;;;3.58;1.55;;;;;;;;;;4992972;28;21960;-62
2023/08/28 09:49:05;;;;;;;1.67;1.13;;;;;;;;;;4997530;28;20113;-62
2023/08/28 09:51:42;;;;;;;3.67;1.20;;;;;;;;;;4998147;28;20060;-62
2023/08/28 09:54:10;;;;;;;2.65;1.20;;;;;;;;;;4993114;28;20061;-62
2023/08/28 09:56:39;;;;;;;3.00;1.20;;;;;;;;;;4999246;28;20050;-62
2023/08/28 09:59:08;;;;;;;2.95;1.35;;;;;;;;;;4996784;28;20054;-62
2023/08/28 10:01:36;;;;;;;3.22;1.20;;;;;;;;;;5000765;28;20181;-62
2023/08/28 10:04:06;;;;;;;3.42;1.20;;;;;;;;;;4996903;28;20556;-63
2023/08/28 10:06:35;;;;;;;2.42;1.10;;;;;;;;;;4993719;28;20396;-62
2023/08/28 10:09:04;;;;;;;3.30;1.00;;;;;;;;;;5000940;28;20046;-62
2023/08/28 10:11:37;;;;;;;2.65;1.10;;;;;;;;;;5000216;28;20061;-62
2023/08/28 10:14:05;;;;;;;1.48;0.70;;;;;;;;;;4967792;28;20066;-62
2023/08/28 10:16:36;;;;;;;1.70;0.80;;;;;;;;;;4992995;28;20078;-62
2023/08/28 10:19:13;;;;;;;2.35;0.80;;;;;;;;;;4999478;28;20147;-62
2023/08/28 10:21:41;;;;;;;2.83;0.80;;;;;;;;;;5003222;28;20046;-62
2023/08/28 10:24:09;;;;;;;1.38;0.95;;;;;;;;;;4986237;28;20157;-62
2023/08/28 10:26:36;;;;;;;1.27;0.65;;;;;;;;;;4992774;28;20958;-62
2023/08/28 10:29:04;;;;;;;1.00;0.80;;;;;;;;;;5016688;28;20089;-62
2023/08/28 10:31:31;;;;;;;2.90;0.90;;;;;;;;;;4981120;28;20101;-61
2023/08/28 10:34:00;;;;;;;2.50;1.00;;;;;;;;;;4940653;28;20387;-62
2023/08/28 10:36:27;;;;;;;;;;;;;;;;;;4985303;28;20054;-63
2023/08/28 10:38:54;;;;;;;5.80;1.17;;;;;;;;;;4978954;28;20036;-62
2023/08/28 10:41:22;;;;;;;1.80;1.00;;;;;;;;;;4993941;28;20061;-63
2023/08/28 10:43:51;;;;;;;2.15;1.10;;;;;;;;;;4985731;28;20108;-64
2023/08/28 10:46:20;;;;;;;2.80;0.98;;;;;;;;;;4967386;28;20085;-64
2023/08/28 10:48:47;;;;;;;3.25;1.10;;;;;;;;;;4999410;28;20112;-64
2023/08/28 10:51:15;;;;;;;4.70;1.15;;;;;;;;;;4998914;28;20117;-63
2023/08/28 10:53:43;;;;;;;2.95;0.90;;;;;;;;;;4998568;28;20085;-64
2023/08/28 10:56:12;;;;;;;1.88;1.02;;;;;;;;;;4985515;28;20058;-64
2023/08/28 10:58:39;;;;;;;2.47;1.25;;;;;;;;;;4989906;28;20046;-64
2023/08/28 11:01:12;;;;;;;2.65;1.42;;;;;;;;;;4998164;28;20065;-63
2023/08/28 11:03:54;;;;;;;2.70;1.17;;;;;;;;;;5016955;28;20084;-63
2023/08/28 11:06:39;;;;;;;1.65;0.95;;;;;;;;;;4997773;28;20111;-62
2023/08/28 11:09:39;;;;;;;2.45;1.05;;;;;;;;;;5017967;28;20319;-62
2023/08/28 11:12:25;;;;;;;1.98;1.00;;;;;;;;;;4995509;28;20057;-62
2023/08/28 11:14:59;;;;;;;1.77;1.10;;;;;;;;;;4994295;28;20130;-62
2023/08/28 11:17:26;;;;;;;2.67;1.00;;;;;;;;;;4981137;28;20062;-63
2023/08/28 11:20:05;;;;;;;4.45;0.98;;;;;;;;;;5007520;28;20243;-63
2023/08/28 11:22:34;;;;;;;2.88;1.13;;;;;;;;;;4994077;28;20053;-63
2023/08/28 11:25:04;;;;;;;2.63;1.10;;;;;;;;;;4995989;28;20067;-61
2023/08/28 11:27:34;;;;;;;2.55;0.93;;;;;;;;;;5018422;28;20061;-61
2023/08/28 11:30:05;;;;;;;2.75;0.90;;;;;;;;;;5017894;28;20049;-63
2023/08/28 11:32:33;;;;;;;4.07;1.10;;;;;;;;;;5010610;28;20081;-63
2023/08/28 11:35:01;;;;;;;2.83;1.13;;;;;;;;;;5002780;28;20061;-63
2023/08/28 11:37:33;;;;;;;3.63;1.08;;;;;;;;;;5017567;28;20048;-63
2023/08/28 11:39:59;;;;;;;1.20;0.98;;;;;;;;;;4982923;28;20153;-63
2023/08/28 11:42:26;;;;;;;4.57;0.93;;;;;;;;;;4973157;28;20157;-61
2023/08/28 11:44:53;;;;;;;1.95;0.90;;;;;;;;;;4976094;28;20113;-62
2023/08/28 11:47:27;;;;;;;2.03;0.60;;;;;;;;;;4980825;28;20132;-61
2023/08/28 11:49:54;;;;;;;2.85;1.05;;;;;;;;;;4998279;28;20368;-62
2023/08/28 11:52:21;;;;;;;2.05;0.90;;;;;;;;;;4983074;28;20075;-62
2023/08/28 11:54:51;;;;;;;1.70;0.73;;;;;;;;;;4980279;28;20149;-63
2023/08/28 11:57:19;;;;;;;1.15;0.60;;;;;;;;;;4991844;28;20059;-63
2023/08/28 11:59:46;;;;;;;2.75;1.45;;;;;;;;;;5000100;28;20050;-62
2023/08/28 12:02:14;;;;;;;1.73;1.13;;;;;;;;;;4988801;28;20061;-63
2023/08/28 12:04:41;;;;;;;2.75;1.70;;;;;;;;;;4960590;28;20065;-62
2023/08/28 12:07:17;;;;;;;1.83;0.93;;;;;;;;;;4960235;28;20055;-62
2023/08/28 12:09:45;;;;;;;3.75;0.85;;;;;;;;;;4957976;28;20055;-62
2023/08/28 12:12:13;;;;;;;0.83;0.70;;;;;;;;;;4965860;28;20144;-61
2023/08/28 12:14:43;;;;;;;2.15;0.70;;;;;;;;;;4934568;28;20188;-62
2023/08/28 12:17:14;;;;;;;0.77;0.70;;;;;;;;;;4981310;28;20107;-61
2023/08/28 12:19:41;;;;;;;0.68;0.60;;;;;;;;;;4982116;28;20076;-61
2023/08/28 12:22:14;;;;;;;3.55;0.70;;;;;;;;;;4981361;28;20177;-63
2023/08/28 12:24:46;;;;;;;1.20;0.70;;;;;;;;;;4949876;28;20058;-62
2023/08/28 12:27:16;;;;;;;1.92;0.93;;;;;;;;;;4968581;28;20054;-62
2023/08/28 12:29:43;;;;;;;1.58;0.70;;;;;;;;;;4976915;28;20062;-62
2023/08/28 12:32:18;;;;;;;2.05;0.70;;;;;;;;;;4961714;28;20151;-63
2023/08/28 12:34:46;;;;;;;2.47;0.75;;;;;;;;;;4933068;28;20066;-62
2023/08/28 12:37:14;;;;;;;1.80;0.77;;;;;;;;;;4979586;28;20104;-62
2023/08/28 12:39:48;;;;;;;2.58;0.68;;;;;;;;;;4980344;28;20391;-62
2023/08/28 12:42:17;;;;;;;1.73;0.85;;;;;;;;;;4978978;28;20054;-63
2023/08/28 12:44:45;;;;;;;1.63;0.70;;;;;;;;;;4956265;28;20149;-62
2023/08/28 12:47:12;;;;;;;1.90;0.90;;;;;;;;;;4969183;28;20050;-62
2023/08/28 12:49:40;;;;;;;1.92;0.73;;;;;;;;;;4979690;28;20061;-65
2023/08/28 12:52:08;;;;;;;2.75;1.00;;;;;;;;;;4979856;28;20046;-64
2023/08/28 12:54:35;;;;;;;0.82;0.73;;;;;;;;;;4932466;28;20722;-63
2023/08/28 12:57:03;;;;;;;2.50;1.05;;;;;;;;;;4974341;28;20051;-65
2023/08/28 12:59:32;;;;;;;4.57;0.80;;;;;;;;;;4960798;28;20055;-64
2023/08/28 13:01:59;;;;;;;2.13;0.70;;;;;;;;;;4986393;28;20080;-63
2023/08/28 13:04:26;;;;;;;2.15;0.70;;;;;;;;;;4981369;28;20068;-64
2023/08/28 13:06:54;;;;;;;2.45;0.90;;;;;;;;;;5007389;28;20136;-64
2023/08/28 13:09:25;;;;;;;1.15;0.70;;;;;;;;;;5002665;28;20070;-64
2023/08/28 13:11:51;;;;;;;2.30;0.77;;;;;;;;;;5016419;28;20045;-63
2023/08/28 13:14:21;;;;;;;1.70;0.65;;;;;;;;;;4986406;28;20045;-65
2023/08/28 13:16:49;;;;;;;1.10;0.70;;;;;;;;;;4999681;28;20058;-63
2023/08/28 13:19:18;;;;;;;0.80;0.68;;;;;;;;;;5003832;28;20253;-63
2023/08/28 13:21:45;;;;;;;3.65;0.70;;;;;;;;;;5019433;28;20096;-63
2023/08/28 13:24:12;;;;;;;1.63;0.70;;;;;;;;;;4998682;28;20072;-65
2023/08/28 13:26:39;;;;;;;1.85;0.70;;;;;;;;;;4976836;28;20060;-63
2023/08/28 13:29:05;;;;;;;1.90;0.50;;;;;;;;;;5001353;28;20061;-64
2023/08/28 13:31:34;;;;;;;1.80;0.80;;;;;;;;;;5008282;28;20100;-64
2023/08/28 13:34:02;;;;;;;;;;;;;;;;;;4981882;28;20053;-64
2023/08/28 13:36:29;;;;;;;1.63;0.52;;;;;;;;;;4975402;28;19925;-64
2023/08/28 13:38:56;;;;;;;1.75;0.70;;;;;;;;;;4998649;28;20094;-64
2023/08/28 13:41:24;;;;;;;3.28;0.80;;;;;;;;;;5003324;28;20140;-61
2023/08/28 13:43:51;;;;;;;;;;;;;;;;;;4982460;28;20081;-61
2023/08/28 13:46:17;;;;;;;0.70;0.40;;;;;;;;;;4967355;28;19925;-62
2023/08/28 13:48:44;;;;;;;4.82;0.80;;;;;;;;;;4999062;28;20108;-64
2023/08/28 13:51:12;;;;;;;6.00;3.65;;;;;;;;;;5000416;28;20066;-64
2023/08/28 13:53:39;;;;;;;5.80;2.90;;;;;;;;;;4997612;28;20059;-64
2023/08/28 13:56:05;;;;;;;1.85;0.98;;;;;;;;;;5006857;28;20064;-62
2023/08/28 13:58:32;;;;;;;1.77;0.55;;;;;;;;;;5010934;28;20131;-63
2023/08/28 14:01:00;;;;;;;2.90;0.60;;;;;;;;;;5018441;28;20069;-63
2023/08/28 14:03:27;;;;;;;2.28;0.77;;;;;;;;;;4980424;28;20058;-64
2023/08/28 14:05:56;;;;;;;1.33;0.50;;;;;;;;;;4957459;28;20058;-62
2023/08/28 14:08:24;;;;;;;2.70;0.70;;;;;;;;;;4968387;28;20371;-64
2023/08/28 14:10:51;;;;;;;;;;;;;;;;;;4980292;28;20144;-64
2023/08/28 14:13:18;;;;;;;3.35;0.60;;;;;;;;;;4978997;28;19956;-63
2023/08/28 14:15:48;;;;;;;1.40;0.60;;;;;;;;;;4957292;28;20068;-62
2023/08/28 14:18:19;;;;;;;4.32;1.88;;;;;;;;;;4976189;28;20062;-62
2023/08/28 14:20:51;;;;;;;1.42;0.90;;;;;;;;;;4977101;28;20146;-63
2023/08/28 14:23:17;;;;;;;4.97;1.85;;;;;;;;;;4978606;28;20081;-63
2023/08/28 14:25:46;;;;;;;5.32;1.55;;;;;;;;;;4968304;28;20216;-62
2023/08/28 14:28:13;;;;;;;0.52;0.52;;;;;;;;;;4962761;28;20054;-63
2023/08/28 14:30:40;;;;;;;2.88;0.70;;;;;;;;;;4964466;28;20152;-62
2023/08/28 14:33:06;;;;;;;4.53;0.70;;;;;;;;;;4979351;28;20077;-62
2023/08/28 14:35:33;;;;;;;2.08;0.70;;;;;;;;;;4975027;28;20151;-62
2023/08/28 14:38:00;;;;;;;0.68;0.55;;;;;;;;;;4981050;28;20054;-62
2023/08/28 14:40:27;;;;;;;0.73;0.60;;;;;;;;;;4970450;28;20077;-62
2023/08/28 14:42:55;;;;;;;1.23;0.50;;;;;;;;;;4978517;28;20054;-63
2023/08/28 14:45:22;;;;;;;1.38;0.68;;;;;;;;;;4975260;28;20529;-62
2023/08/28 14:47:48;;;;;;;3.10;0.85;;;;;;;;;;4980092;28;20109;-63
2023/08/28 14:50:15;;;;;;;1.48;0.60;;;;;;;;;;4975170;28;20169;-61